Airfield :
LOGIN :

Register | Disclaimer

   EN    FR    IT 

 










Legend :    VFR   Marginal VFR   IFR   Intensive IFR   Very Intensive IFR
Visi :
Ceiling :
>= 8 km
>= 3000ft
5 to 8 km
1000 to 3000 ft
1500m to 5 km
500 to 1000 ft
800 to 1500m
200 to 500 ft
< 800m
< 200 ft
Symbols :   Thunderstorms  Fog  Heavy snow  Heavy precipitations  Wind > 20 kt
SIGMETs :     Misc.  Thunderstorms  Icing  Turbulence  Mountain Waves  Volcanic Ashes







- Airport Elevation : 44 ft
- IATA code : SOU
- Download approach charts


EGHI - Southampton

CURRENT METAR :
  • 191620Z 20006KT 9999 FEW040 15/09 Q1021

EXPIRED METARs :
  • 191550Z 21006KT 9999 FEW040 15/09 Q1021
  • 191520Z 22006KT 180V260 9999 FEW028 SCT036 15/09 Q1022
  • 191450Z 22006KT 180V260 9999 FEW033 SCT037 15/09 Q1022
  • 191420Z 26005KT 230V290 9999 FEW035 SCT045 16/08 Q1022
  • 191350Z 28007KT 250V310 9999 FEW030 SCT040 15/06 Q1022

TAF TAF EGHI
Valid from the 19 at 15:00 until the 19 at 22:00 UTC


191401Z 1915/1922 26006KT 9999 SCT030
ATIS : +44 23 8062 7103
No reported NOTAMs for that airfield.



MET'MAP, your aeronautical weather chart ! - Copyright ORBIFLY December 2007 - Disclaimer

ORBIFLY MET'MAP TEAM :

Programming & Development : Alexandra Zaïnal
Concept & Development : Baudouin d'Aumeries
Co-Development & Prog : Marc-Olivier Méhu
Technical & hardware support : Manuel Goepfert

Contact : metmap@orbifly.com




SOURCES & CREDITS :

   NOAA